createdAt,value
2023-05-14T00:00:31.350Z,14.32
2023-05-14T00:05:32.791Z,14.70
2023-05-14T00:10:34.520Z,15.02
2023-05-14T00:15:36.121Z,19.20
2023-05-14T00:20:37.871Z,13.18
2023-05-14T00:25:39.320Z,14.20
2023-05-14T00:30:40.831Z,12.32
2023-05-14T00:35:42.259Z,14.48
2023-05-14T00:40:45.790Z,13.10
2023-05-14T00:45:53.799Z,14.02
2023-05-14T00:50:55.429Z,14.02
2023-05-14T00:55:58.593Z,12.88
2023-05-14T01:01:00.115Z,15.13
2023-05-14T01:06:15.524Z,15.05
2023-05-14T01:11:29.193Z,13.45
2023-05-14T01:16:33.358Z,15.82
2023-05-14T01:21:40.945Z,19.02
2023-05-14T01:26:42.459Z,16.13
2023-05-14T01:31:46.541Z,15.35
2023-05-14T01:36:50.202Z,12.38
2023-05-14T01:41:52.685Z,14.40
2023-05-14T01:46:54.162Z,13.52
2023-05-14T01:51:55.661Z,14.75
2023-05-14T01:56:57.130Z,13.40
2023-05-14T02:01:58.808Z,13.93
2023-05-14T02:07:00.487Z,13.77
2023-05-14T02:12:01.972Z,15.20
2023-05-14T02:17:03.691Z,12.32
2023-05-14T02:22:05.371Z,16.58
2023-05-14T02:27:06.808Z,15.20
2023-05-14T02:32:08.307Z,12.63
2023-05-14T02:37:09.816Z,13.90
2023-05-14T02:42:11.292Z,11.23
2023-05-14T02:47:12.805Z,13.48
2023-05-14T02:52:14.261Z,14.43
2023-05-14T02:57:15.685Z,13.45
2023-05-14T03:02:17.311Z,16.52
2023-05-14T03:07:19.262Z,11.88
2023-05-14T03:12:21.104Z,12.65
2023-05-14T03:17:23.005Z,16.38
2023-05-14T03:22:24.468Z,12.02
2023-05-14T03:27:25.866Z,16.52
2023-05-14T03:32:27.465Z,13.18
2023-05-14T03:37:28.956Z,14.18
2023-05-14T03:42:30.479Z,12.02
2023-05-14T03:47:31.938Z,16.75
2023-05-14T03:52:33.382Z,15.32
2023-05-14T03:57:34.824Z,17.73
2023-05-14T04:02:36.371Z,15.65
2023-05-14T04:07:37.869Z,12.63
2023-05-14T04:12:39.321Z,12.68
2023-05-14T04:17:41.199Z,13.40
2023-05-14T04:22:42.672Z,18.02
2023-05-14T04:27:44.121Z,13.25
2023-05-14T04:32:45.594Z,14.02
2023-05-14T04:37:47.274Z,12.05
2023-05-14T04:42:48.671Z,12.35
2023-05-14T04:47:50.101Z,13.73
2023-05-14T04:52:51.546Z,12.52
2023-05-14T04:57:53.029Z,14.02
2023-05-14T05:02:54.600Z,12.10
2023-05-14T05:07:56.147Z,13.20
2023-05-14T05:12:58.646Z,13.50
2023-05-14T05:18:00.581Z,16.40
2023-05-14T05:23:02.073Z,12.57
2023-05-14T05:28:03.646Z,15.38
2023-05-14T05:33:05.287Z,12.85
2023-05-14T05:38:07.378Z,11.50
2023-05-14T05:43:08.800Z,14.50
2023-05-14T05:48:10.284Z,11.90
2023-05-14T05:53:12.463Z,15.35
2023-05-14T05:58:15.784Z,14.07
2023-05-14T06:03:17.283Z,14.98
2023-05-14T06:08:18.931Z,13.95
2023-05-14T06:13:20.424Z,13.35
2023-05-14T06:18:21.879Z,13.23
2023-05-14T06:23:23.359Z,17.20
2023-05-14T06:28:24.793Z,15.75
2023-05-14T06:33:30.829Z,14.93
2023-05-14T06:38:32.822Z,16.45
2023-05-14T06:43:34.229Z,15.90
2023-05-14T06:48:36.460Z,16.70
2023-05-14T06:53:37.961Z,12.30
2023-05-14T06:58:39.377Z,10.90
2023-05-14T07:03:40.901Z,9.88
2023-05-14T07:08:45.973Z,9.50
2023-05-14T07:13:47.473Z,8.85
2023-05-14T07:18:49.003Z,6.38
2023-05-14T07:23:51.035Z,7.07
2023-05-14T07:28:52.641Z,8.15
2023-05-14T07:33:54.056Z,6.68
2023-05-14T07:38:56.115Z,7.05
2023-05-14T07:43:57.601Z,5.25
2023-05-14T07:48:59.028Z,5.50
2023-05-14T07:54:01.007Z,4.30
2023-05-14T07:59:02.415Z,6.05
2023-05-14T08:04:03.958Z,4.82
2023-05-14T08:09:05.487Z,4.30
2023-05-14T08:14:06.920Z,4.72
2023-05-14T08:19:08.500Z,4.75
2023-05-14T08:24:09.998Z,2.88
2023-05-14T08:29:12.841Z,2.70
2023-05-14T08:34:15.746Z,2.75
2023-05-14T08:39:17.192Z,3.33
2023-05-14T08:44:20.564Z,2.65
2023-05-14T08:49:44.920Z,7.40
2023-05-14T08:54:48.151Z,4.40
2023-05-14T08:59:49.593Z,3.78
2023-05-14T09:05:01.550Z,2.90
2023-05-14T09:10:04.022Z,2.92
2023-05-14T09:15:06.559Z,3.20
2023-05-14T09:20:09.624Z,4.38
2023-05-14T09:25:14.690Z,3.85
2023-05-14T09:30:16.272Z,3.58
2023-05-14T09:35:20.779Z,4.70
2023-05-14T09:40:24.328Z,5.95
2023-05-14T09:45:26.337Z,3.65
2023-05-14T09:50:27.761Z,3.88
2023-05-14T09:55:29.403Z,3.45
2023-05-14T10:00:32.934Z,3.38
2023-05-14T10:05:36.554Z,4.60
2023-05-14T10:10:38.643Z,3.45
2023-05-14T10:15:43.630Z,3.40
2023-05-14T10:20:53.285Z,6.38
2023-05-14T10:25:54.868Z,2.65
2023-05-14T10:30:56.459Z,3.13
2023-05-14T10:36:04.469Z,3.33
2023-05-14T10:41:10.883Z,3.10
2023-05-14T10:46:14.078Z,3.88
2023-05-14T10:51:17.466Z,4.97
2023-05-14T10:56:19.486Z,2.78
2023-05-14T11:01:24.108Z,3.58
2023-05-14T11:06:26.811Z,2.55
2023-05-14T11:11:28.340Z,3.58
2023-05-14T11:16:31.267Z,2.78
2023-05-14T11:21:32.959Z,4.03
2023-05-14T11:26:35.822Z,3.00
2023-05-14T11:31:37.365Z,5.47
2023-05-14T11:36:38.985Z,3.90
2023-05-14T11:41:45.125Z,2.97
2023-05-14T11:46:56.657Z,2.58
2023-05-14T11:51:59.367Z,2.92
2023-05-14T11:57:07.858Z,3.83
2023-05-14T12:07:16.457Z,5.95
2023-05-14T12:12:20.415Z,4.55
2023-05-14T12:17:23.209Z,5.70
2023-05-14T12:22:24.736Z,3.70
2023-05-14T12:27:27.730Z,5.22
2023-05-14T12:32:32.188Z,5.82
2023-05-14T12:37:34.160Z,3.80
2023-05-14T12:42:35.942Z,4.78
2023-05-14T12:47:37.752Z,6.53
2023-05-14T12:52:40.080Z,4.68
2023-05-14T12:57:41.855Z,4.90
2023-05-14T13:02:44.060Z,3.53
2023-05-14T13:07:45.803Z,4.57
2023-05-14T13:12:47.286Z,5.28
2023-05-14T13:17:49.046Z,5.95
2023-05-14T13:22:50.665Z,5.05
2023-05-14T13:27:52.110Z,7.20
2023-05-14T13:32:53.532Z,6.40
2023-05-14T13:37:55.002Z,6.78
2023-05-14T13:42:56.485Z,9.95
2023-05-14T13:47:57.993Z,6.97
2023-05-14T13:52:59.537Z,6.18
2023-05-14T13:58:02.360Z,6.75
2023-05-14T14:03:03.943Z,9.35
2023-05-14T14:08:22.046Z,5.93
2023-05-14T14:13:25.147Z,6.85
2023-05-14T14:18:26.805Z,8.05
2023-05-14T14:23:28.344Z,9.77
2023-05-14T14:28:29.919Z,9.48
2023-05-14T14:33:31.417Z,7.72
2023-05-14T14:38:33.021Z,9.23
2023-05-14T14:43:34.608Z,8.95
2023-05-14T14:48:39.873Z,6.53
2023-05-14T14:53:41.415Z,8.68
2023-05-14T14:58:42.921Z,7.57
2023-05-14T15:03:45.644Z,6.60
2023-05-14T15:08:47.338Z,10.50
2023-05-14T15:13:48.920Z,7.10
2023-05-14T15:18:50.546Z,8.18
2023-05-14T15:23:52.400Z,8.70
2023-05-14T15:28:54.036Z,8.60
2023-05-14T15:33:56.121Z,6.25
2023-05-14T15:38:57.862Z,7.57
2023-05-14T15:43:59.356Z,7.68
2023-05-14T15:49:00.799Z,6.43
2023-05-14T15:54:02.338Z,7.47
2023-05-14T15:59:03.792Z,9.85
2023-05-14T16:04:05.414Z,7.88
2023-05-14T16:09:07.047Z,6.95
2023-05-14T16:14:08.445Z,9.65
2023-05-14T16:19:10.061Z,10.32
2023-05-14T16:24:12.754Z,9.88
2023-05-14T16:29:14.256Z,10.20
2023-05-14T16:34:16.186Z,10.55
2023-05-14T16:39:19.813Z,8.32
2023-05-14T16:44:21.360Z,9.73
2023-05-14T16:49:22.853Z,9.82
2023-05-14T16:54:24.256Z,9.80
2023-05-14T16:59:27.178Z,11.38
2023-05-14T17:04:28.764Z,11.13
2023-05-14T17:09:31.436Z,9.90
2023-05-14T17:14:32.888Z,8.20
2023-05-14T17:19:34.354Z,13.00
2023-05-14T17:24:36.572Z,12.88
2023-05-14T17:29:38.109Z,9.88
2023-05-14T17:34:39.560Z,10.35
2023-05-14T17:39:40.982Z,10.73
2023-05-14T17:44:42.440Z,8.95
2023-05-14T17:49:43.895Z,11.05
2023-05-14T17:54:45.472Z,10.77
2023-05-14T17:59:46.897Z,16.23
2023-05-14T18:04:48.366Z,12.45
2023-05-14T18:09:49.890Z,10.75
2023-05-14T18:14:51.724Z,13.05
2023-05-14T18:19:53.232Z,15.13
2023-05-14T18:24:54.695Z,12.98
2023-05-14T18:29:56.171Z,12.18
2023-05-14T18:34:57.620Z,9.60
2023-05-14T18:39:59.065Z,13.38
2023-05-14T18:45:00.665Z,14.48
2023-05-14T18:50:03.008Z,12.93
2023-05-14T18:55:04.874Z,13.38
2023-05-14T19:00:07.226Z,10.57
2023-05-14T19:05:08.938Z,10.10
2023-05-14T19:10:10.894Z,12.93
2023-05-14T19:15:12.446Z,13.43
2023-05-14T19:20:14.014Z,21.15
2023-05-14T19:25:15.519Z,15.07
2023-05-14T19:30:17.781Z,14.60
2023-05-14T19:35:19.686Z,13.55
2023-05-14T19:40:21.105Z,14.02
2023-05-14T19:45:22.625Z,15.00
2023-05-14T19:50:24.182Z,15.40
2023-05-14T19:55:26.035Z,16.75
2023-05-14T20:00:27.981Z,13.75
2023-05-14T20:05:29.691Z,12.70
2023-05-14T20:10:31.192Z,12.68
2023-05-14T20:15:32.635Z,13.90
2023-05-14T20:20:34.219Z,16.77
2023-05-14T20:25:35.712Z,16.75
2023-05-14T20:30:37.351Z,15.73
2023-05-14T20:35:40.766Z,15.57
2023-05-14T20:40:42.220Z,17.05
2023-05-14T20:45:43.721Z,15.63
2023-05-14T20:50:45.125Z,18.27
2023-05-14T20:55:46.601Z,15.80
2023-05-14T21:00:48.065Z,13.80
2023-05-14T21:05:49.534Z,13.75
2023-05-14T21:10:50.969Z,13.40
2023-05-14T21:15:52.527Z,13.23
2023-05-14T21:20:53.959Z,12.52
2023-05-14T21:25:55.632Z,14.70
2023-05-14T21:30:57.192Z,10.60
2023-05-14T21:35:58.877Z,11.60
2023-05-14T21:41:00.674Z,14.65
2023-05-14T21:46:02.202Z,15.65
2023-05-14T21:51:03.844Z,15.77
2023-05-14T21:56:06.077Z,16.42
2023-05-14T22:01:09.045Z,15.23
2023-05-14T22:06:10.611Z,12.23
2023-05-14T22:11:12.085Z,14.55
2023-05-14T22:16:14.299Z,15.43
2023-05-14T22:21:15.974Z,13.98
2023-05-14T22:26:17.460Z,13.57
2023-05-14T22:31:18.974Z,13.38
2023-05-14T22:36:20.526Z,14.93
2023-05-14T22:41:22.120Z,13.65
2023-05-14T22:46:23.693Z,16.02
2023-05-14T22:51:25.520Z,14.68
2023-05-14T22:56:27.796Z,28.45
2023-05-14T23:01:30.091Z,20.13
2023-05-14T23:06:31.875Z,17.67
2023-05-14T23:11:33.347Z,16.13
2023-05-14T23:16:35.143Z,16.13
2023-05-14T23:21:36.548Z,16.45
2023-05-14T23:26:38.240Z,18.58
2023-05-14T23:31:41.028Z,17.35
2023-05-14T23:36:42.703Z,18.80
2023-05-14T23:41:44.206Z,18.27
2023-05-14T23:46:45.733Z,14.85
2023-05-14T23:51:47.216Z,10.35
2023-05-14T23:56:48.759Z,12.65
